createdAt,value
2023-04-29T00:00:01.836Z,91.36
2023-04-29T00:02:23.443Z,90.83
2023-04-29T00:04:45.151Z,90.71
2023-04-29T00:07:08.424Z,90.92
2023-04-29T00:09:29.861Z,91.48
2023-04-29T00:11:51.767Z,91.56
2023-04-29T00:14:13.766Z,92.49
2023-04-29T00:16:35.428Z,92.05
2023-04-29T00:18:56.916Z,93.00
2023-04-29T00:21:18.428Z,92.30
2023-04-29T00:23:39.891Z,92.77
2023-04-29T00:26:01.482Z,92.79
2023-04-29T00:28:22.958Z,93.74
2023-04-29T00:30:44.452Z,94.88
2023-04-29T00:33:05.897Z,93.64
2023-04-29T00:35:27.372Z,94.15
2023-04-29T00:37:48.871Z,94.31
2023-04-29T00:40:10.727Z,94.69
2023-04-29T00:42:33.930Z,93.13
2023-04-29T00:44:55.904Z,92.70
2023-04-29T00:47:17.437Z,92.02
2023-04-29T00:49:39.824Z,93.98
2023-04-29T00:52:02.077Z,92.79
2023-04-29T00:54:24.003Z,92.75
2023-04-29T00:56:46.458Z,93.65
2023-04-29T00:59:10.177Z,92.98
2023-04-29T01:01:32.574Z,93.79
2023-04-29T01:03:55.034Z,94.74
2023-04-29T01:06:38.353Z,93.03
2023-04-29T01:09:33.945Z,92.87
2023-04-29T01:12:08.335Z,92.30
2023-04-29T01:14:33.024Z,92.47
2023-04-29T01:17:00.382Z,92.80
2023-04-29T01:19:47.432Z,92.19
2023-04-29T01:22:08.867Z,92.86
2023-04-29T01:24:30.359Z,92.59
2023-04-29T01:27:02.617Z,94.57
2023-04-29T01:29:40.152Z,92.96
2023-04-29T01:32:09.101Z,97.40
2023-04-29T01:34:54.390Z,97.15
2023-04-29T01:37:22.429Z,96.75
2023-04-29T01:40:09.473Z,97.47
2023-04-29T01:42:44.278Z,96.64
2023-04-29T01:45:08.621Z,97.66
2023-04-29T01:47:30.821Z,98.52
2023-04-29T01:49:52.683Z,100.00
2023-04-29T01:52:14.350Z,100.00
2023-04-29T01:54:38.767Z,98.30
2023-04-29T01:57:00.665Z,100.00
2023-04-29T01:59:22.077Z,99.41
2023-04-29T02:01:43.894Z,99.25
2023-04-29T02:04:05.512Z,100.00
2023-04-29T02:06:28.096Z,100.00
2023-04-29T02:08:49.674Z,100.00
2023-04-29T02:11:11.099Z,100.00
2023-04-29T02:13:32.577Z,100.00
2023-04-29T02:15:54.133Z,100.00
2023-04-29T02:18:16.230Z,100.00
2023-04-29T02:20:37.716Z,100.00
2023-04-29T02:22:59.145Z,100.00
2023-04-29T02:25:21.031Z,100.00
2023-04-29T02:27:42.484Z,100.00
2023-04-29T02:30:04.878Z,100.00
2023-04-29T02:32:26.296Z,100.00
2023-04-29T02:34:47.788Z,100.00
2023-04-29T02:37:09.235Z,100.00
2023-04-29T02:39:30.834Z,100.00
2023-04-29T02:41:55.701Z,100.00
2023-04-29T02:44:17.202Z,100.00
2023-04-29T02:46:40.869Z,100.00
2023-04-29T02:49:02.804Z,100.00
2023-04-29T02:51:24.634Z,100.00
2023-04-29T02:53:46.100Z,100.00
2023-04-29T02:56:07.763Z,100.00
2023-04-29T02:58:29.215Z,100.00
2023-04-29T03:00:50.985Z,100.00
2023-04-29T03:03:12.734Z,100.00
2023-04-29T03:05:35.362Z,100.00
2023-04-29T03:07:56.824Z,100.00
2023-04-29T03:10:19.154Z,100.00
2023-04-29T03:12:40.937Z,100.00
2023-04-29T03:15:02.403Z,100.00
2023-04-29T03:17:24.032Z,100.00
2023-04-29T03:19:45.519Z,100.00
2023-04-29T03:22:08.314Z,100.00
2023-04-29T03:24:29.826Z,100.00
2023-04-29T03:26:51.252Z,100.00
2023-04-29T03:29:12.721Z,100.00
2023-04-29T03:31:34.619Z,100.00
2023-04-29T03:33:56.148Z,100.00
2023-04-29T03:36:17.657Z,100.00
2023-04-29T03:38:39.173Z,100.00
2023-04-29T03:41:00.872Z,100.00
2023-04-29T03:43:22.400Z,100.00
2023-04-29T03:45:43.835Z,100.00
2023-04-29T03:48:06.110Z,100.00
2023-04-29T03:50:27.631Z,100.00
2023-04-29T03:52:49.404Z,100.00
2023-04-29T03:55:11.689Z,100.00
2023-04-29T03:57:33.183Z,100.00
2023-04-29T03:59:54.795Z,100.00
2023-04-29T04:02:17.167Z,100.00
2023-04-29T04:04:39.032Z,100.00
2023-04-29T04:07:00.969Z,100.00
2023-04-29T04:09:22.407Z,100.00
2023-04-29T04:11:44.435Z,100.00
2023-04-29T04:14:06.541Z,100.00
2023-04-29T04:16:28.156Z,100.00
2023-04-29T04:18:49.612Z,100.00
2023-04-29T04:21:12.661Z,100.00
2023-04-29T04:23:34.429Z,100.00
2023-04-29T04:25:55.873Z,100.00
2023-04-29T04:28:17.362Z,100.00
2023-04-29T04:30:38.780Z,100.00
2023-04-29T04:33:00.307Z,100.00
2023-04-29T04:35:22.066Z,100.00
2023-04-29T04:37:43.503Z,100.00
2023-04-29T04:40:05.581Z,100.00
2023-04-29T04:42:27.033Z,100.00
2023-04-29T04:44:48.463Z,100.00
2023-04-29T04:47:11.581Z,100.00
2023-04-29T04:49:33.106Z,100.00
2023-04-29T04:51:54.573Z,100.00
2023-04-29T04:54:16.012Z,100.00
2023-04-29T04:56:37.910Z,100.00
2023-04-29T04:58:59.359Z,100.00
2023-04-29T05:01:21.377Z,100.00
2023-04-29T05:03:43.107Z,100.00
2023-04-29T05:06:04.729Z,100.00
2023-04-29T05:08:26.820Z,100.00
2023-04-29T05:10:48.456Z,100.00
2023-04-29T05:13:09.884Z,100.00
2023-04-29T05:15:31.413Z,100.00
2023-04-29T05:17:53.104Z,100.00
2023-04-29T05:20:14.702Z,100.00
2023-04-29T05:22:36.157Z,100.00
2023-04-29T05:25:02.940Z,100.00
2023-04-29T05:27:24.383Z,100.00
2023-04-29T05:29:45.821Z,100.00
2023-04-29T05:32:07.442Z,100.00
2023-04-29T05:34:28.906Z,100.00
2023-04-29T05:36:50.344Z,100.00
2023-04-29T05:39:11.876Z,100.00
2023-04-29T05:41:33.417Z,100.00
2023-04-29T05:43:54.934Z,100.00
2023-04-29T05:46:16.764Z,100.00
2023-04-29T05:48:38.899Z,100.00
2023-04-29T05:51:00.435Z,100.00
2023-04-29T05:53:21.921Z,100.00
2023-04-29T05:55:45.249Z,100.00
2023-04-29T05:58:06.724Z,100.00
2023-04-29T06:00:28.259Z,100.00
2023-04-29T06:02:58.029Z,100.00
2023-04-29T06:05:20.737Z,100.00
2023-04-29T06:07:43.975Z,100.00
2023-04-29T06:10:06.014Z,100.00
2023-04-29T06:12:27.494Z,100.00
2023-04-29T06:14:49.022Z,100.00
2023-04-29T06:17:12.371Z,100.00
2023-04-29T06:19:34.150Z,99.65
2023-04-29T06:21:55.741Z,99.26
2023-04-29T06:24:17.229Z,96.16
2023-04-29T06:26:38.660Z,95.94
2023-04-29T06:29:00.149Z,94.35
2023-04-29T06:31:23.048Z,94.68
2023-04-29T06:33:44.707Z,96.18
2023-04-29T06:36:06.358Z,94.81
2023-04-29T06:38:27.763Z,94.67
2023-04-29T06:40:49.260Z,96.05
2023-04-29T06:43:10.697Z,95.70
2023-04-29T06:45:32.294Z,96.34
2023-04-29T06:47:53.910Z,96.33
2023-04-29T06:50:15.394Z,96.64
2023-04-29T06:52:36.864Z,95.99
2023-04-29T06:54:58.692Z,96.65
2023-04-29T06:57:20.811Z,95.77
2023-04-29T06:59:42.377Z,94.28
2023-04-29T07:02:03.818Z,95.77
2023-04-29T07:04:25.321Z,95.30
2023-04-29T07:06:47.232Z,93.13
2023-04-29T07:09:09.156Z,93.76
2023-04-29T07:11:30.751Z,95.08
2023-04-29T07:13:55.428Z,93.82
2023-04-29T07:16:22.036Z,97.02
2023-04-29T07:18:43.965Z,96.64
2023-04-29T07:21:05.408Z,95.57
2023-04-29T07:23:26.973Z,96.94
2023-04-29T07:25:48.440Z,97.17
2023-04-29T07:28:09.952Z,96.56
2023-04-29T07:30:31.543Z,93.65
2023-04-29T07:32:52.974Z,94.04
2023-04-29T07:35:14.827Z,95.06
2023-04-29T07:37:36.350Z,94.72
2023-04-29T07:39:57.855Z,94.25
2023-04-29T07:42:19.278Z,93.36
2023-04-29T07:44:41.035Z,92.19
2023-04-29T07:47:02.480Z,90.56
2023-04-29T07:49:23.935Z,90.17
2023-04-29T07:51:45.445Z,91.76
2023-04-29T07:54:07.264Z,89.56
2023-04-29T07:56:28.694Z,87.46
2023-04-29T07:58:50.187Z,88.21
2023-04-29T08:01:12.273Z,87.85
2023-04-29T08:03:34.130Z,87.35
2023-04-29T08:06:00.630Z,85.73
2023-04-29T08:08:22.075Z,84.87
2023-04-29T08:10:44.052Z,86.11
2023-04-29T08:13:05.496Z,84.89
2023-04-29T08:15:27.004Z,84.95
2023-04-29T08:17:48.472Z,84.17
2023-04-29T08:20:10.346Z,85.31
2023-04-29T08:22:31.839Z,83.37
2023-04-29T08:24:53.427Z,84.03
2023-04-29T08:27:15.518Z,82.90
2023-04-29T08:29:37.341Z,84.96
2023-04-29T08:31:58.928Z,85.42
2023-04-29T08:34:20.464Z,86.33
2023-04-29T08:36:41.985Z,86.78
2023-04-29T08:39:03.491Z,87.73
2023-04-29T08:41:25.682Z,87.09
2023-04-29T08:43:47.199Z,87.06
2023-04-29T08:46:09.792Z,85.65
2023-04-29T08:48:31.747Z,86.13
2023-04-29T08:50:53.269Z,84.39
2023-04-29T08:53:15.282Z,83.46
2023-04-29T08:55:41.643Z,82.44
2023-04-29T08:58:03.625Z,79.44
2023-04-29T09:00:25.231Z,75.26
2023-04-29T09:02:51.599Z,77.58
2023-04-29T09:05:13.198Z,80.13
2023-04-29T09:07:35.841Z,80.86
2023-04-29T09:09:59.062Z,79.75
2023-04-29T09:12:21.098Z,81.00
2023-04-29T09:14:42.635Z,82.49
2023-04-29T09:17:04.125Z,80.19
2023-04-29T09:19:31.947Z,83.05
2023-04-29T09:21:57.303Z,83.65
2023-04-29T09:24:26.438Z,83.09
2023-04-29T09:26:48.847Z,83.71
2023-04-29T09:29:18.362Z,85.76
2023-04-29T09:31:40.605Z,83.89
2023-04-29T09:34:02.241Z,85.27
2023-04-29T09:36:38.677Z,86.46
2023-04-29T09:39:00.081Z,87.05
2023-04-29T09:41:22.090Z,85.00
2023-04-29T09:43:43.527Z,87.24
2023-04-29T09:46:05.052Z,84.59
2023-04-29T09:48:32.501Z,83.14
2023-04-29T09:51:02.235Z,80.41
2023-04-29T09:53:31.628Z,78.22
2023-04-29T09:55:53.147Z,77.49
2023-04-29T09:58:37.522Z,78.35
2023-04-29T10:01:03.180Z,74.43
2023-04-29T10:03:25.915Z,74.16
2023-04-29T10:05:48.103Z,72.58
2023-04-29T10:08:09.878Z,70.76
2023-04-29T10:10:31.421Z,69.17
2023-04-29T10:12:54.445Z,68.65
2023-04-29T10:15:15.854Z,69.01
2023-04-29T10:17:46.030Z,68.77
2023-04-29T10:20:09.305Z,69.18
2023-04-29T10:22:50.114Z,68.68
2023-04-29T10:25:12.421Z,67.74
2023-04-29T10:27:34.970Z,64.27
2023-04-29T10:29:58.479Z,65.59
2023-04-29T10:32:21.873Z,64.58
2023-04-29T10:34:43.854Z,66.48
2023-04-29T10:37:11.479Z,66.37
2023-04-29T10:39:42.815Z,66.57
2023-04-29T10:42:14.468Z,66.05
2023-04-29T10:45:14.383Z,63.66
2023-04-29T10:47:35.888Z,65.36
2023-04-29T10:50:04.795Z,65.22
2023-04-29T10:52:27.813Z,63.99
2023-04-29T10:55:05.286Z,63.81
2023-04-29T10:57:26.845Z,64.47
2023-04-29T10:59:48.356Z,63.51
2023-04-29T11:02:12.937Z,64.55
2023-04-29T11:04:34.410Z,65.55
2023-04-29T11:06:59.052Z,66.79
2023-04-29T11:09:24.543Z,68.11
2023-04-29T11:11:54.399Z,65.59
2023-04-29T11:14:22.650Z,65.46
2023-04-29T11:16:49.581Z,64.42
2023-04-29T11:19:18.176Z,61.41
2023-04-29T11:21:39.637Z,62.33
2023-04-29T11:24:02.325Z,63.98
2023-04-29T11:26:24.329Z,62.99
2023-04-29T11:28:45.980Z,64.00
2023-04-29T11:31:07.590Z,64.40
2023-04-29T11:33:32.542Z,62.56
2023-04-29T11:35:54.644Z,64.30
2023-04-29T11:38:16.203Z,65.36
2023-04-29T11:40:42.819Z,65.67
2023-04-29T11:43:06.073Z,68.49
2023-04-29T11:45:28.137Z,69.54
2023-04-29T11:47:49.679Z,70.46
2023-04-29T11:50:11.788Z,70.48
2023-04-29T11:52:33.683Z,70.18
2023-04-29T11:54:55.423Z,72.27
2023-04-29T11:57:17.346Z,69.88
2023-04-29T11:59:39.059Z,72.93
2023-04-29T12:02:01.018Z,71.09
2023-04-29T12:04:22.906Z,72.70
2023-04-29T12:06:44.549Z,74.70
2023-04-29T12:09:06.174Z,75.84
2023-04-29T12:11:28.991Z,75.45
2023-04-29T12:13:50.498Z,76.55
2023-04-29T12:16:12.601Z,76.22
2023-04-29T12:18:35.011Z,76.42
2023-04-29T12:20:57.002Z,78.28
2023-04-29T12:23:24.084Z,78.39
2023-04-29T12:25:53.842Z,76.42
2023-04-29T12:28:15.727Z,77.22
2023-04-29T12:30:37.705Z,79.59
2023-04-29T12:32:59.444Z,79.24
2023-04-29T12:35:21.918Z,78.44
2023-04-29T12:37:43.427Z,80.00
2023-04-29T12:40:05.494Z,79.72
2023-04-29T12:42:33.188Z,80.25
2023-04-29T12:44:54.807Z,80.82
2023-04-29T12:47:16.968Z,80.20
2023-04-29T12:49:42.173Z,80.04
2023-04-29T12:52:04.298Z,80.69
2023-04-29T12:54:25.884Z,81.83
2023-04-29T12:56:48.552Z,81.94
2023-04-29T12:59:12.273Z,82.21
2023-04-29T13:01:34.338Z,82.39
2023-04-29T13:03:55.968Z,81.18
2023-04-29T13:06:18.069Z,80.68
2023-04-29T13:08:39.486Z,80.72
2023-04-29T13:11:01.134Z,79.89
2023-04-29T13:13:22.558Z,80.17
2023-04-29T13:15:45.115Z,79.78
2023-04-29T13:18:06.795Z,79.27
2023-04-29T13:20:28.639Z,78.30
2023-04-29T13:22:50.597Z,77.85
2023-04-29T13:25:12.396Z,76.68
2023-04-29T13:27:34.310Z,77.95
2023-04-29T13:29:56.800Z,77.65
2023-04-29T13:32:18.906Z,76.26
2023-04-29T13:34:43.374Z,75.27
2023-04-29T13:37:04.885Z,76.24
2023-04-29T13:39:26.326Z,72.70
2023-04-29T13:41:47.762Z,72.33
2023-04-29T13:44:20.847Z,72.03
2023-04-29T13:46:52.199Z,72.79
2023-04-29T13:49:35.298Z,70.76
2023-04-29T13:52:47.394Z,70.01
2023-04-29T13:54:59.240Z,69.08
2023-04-29T13:59:56.404Z,67.17
2023-04-29T14:04:42.411Z,63.67
2023-04-29T14:07:03.989Z,66.17
2023-04-29T14:09:26.342Z,64.07
2023-04-29T14:11:49.065Z,65.90
2023-04-29T14:14:10.519Z,67.46
2023-04-29T14:16:32.284Z,66.73
2023-04-29T14:18:54.204Z,64.55
2023-04-29T14:21:16.256Z,66.48
2023-04-29T14:23:37.787Z,68.69
2023-04-29T14:26:16.636Z,65.87
2023-04-29T14:28:40.820Z,67.48
2023-04-29T14:31:02.331Z,64.36
2023-04-29T14:33:24.011Z,64.50
2023-04-29T14:35:46.314Z,63.41
2023-04-29T14:38:07.977Z,62.92
2023-04-29T14:40:29.542Z,62.95
2023-04-29T14:42:51.023Z,60.90
2023-04-29T14:45:12.648Z,60.47
2023-04-29T14:47:34.129Z,61.05
2023-04-29T14:49:56.419Z,59.91
2023-04-29T14:52:17.917Z,61.15
2023-04-29T14:54:39.419Z,60.76
2023-04-29T14:57:00.842Z,60.95
2023-04-29T14:59:22.358Z,61.75
2023-04-29T15:01:44.097Z,60.03
2023-04-29T15:04:05.913Z,59.07
2023-04-29T15:06:27.802Z,59.19
2023-04-29T15:08:49.375Z,59.05
2023-04-29T15:11:10.970Z,60.55
2023-04-29T15:13:32.530Z,60.61
2023-04-29T15:15:54.157Z,59.96
2023-04-29T15:18:15.650Z,59.33
2023-04-29T15:20:37.595Z,61.35
2023-04-29T15:22:59.078Z,61.48
2023-04-29T15:25:21.515Z,61.65
2023-04-29T15:27:43.465Z,63.29
2023-04-29T15:30:06.693Z,62.39
2023-04-29T15:32:32.223Z,63.58
2023-04-29T15:34:55.510Z,64.06
2023-04-29T15:37:17.117Z,64.64
2023-04-29T15:39:38.582Z,64.90
2023-04-29T15:42:00.221Z,65.15
2023-04-29T15:44:21.663Z,66.84
2023-04-29T15:46:43.144Z,65.96
2023-04-29T15:49:06.578Z,65.24
2023-04-29T15:51:28.051Z,66.82
2023-04-29T15:53:50.973Z,67.45
2023-04-29T15:56:13.347Z,68.41
2023-04-29T15:58:34.948Z,68.69
2023-04-29T16:00:56.449Z,68.79
2023-04-29T16:03:18.109Z,68.83
2023-04-29T16:05:39.908Z,68.49
2023-04-29T16:08:01.366Z,69.57
2023-04-29T16:10:23.533Z,69.63
2023-04-29T16:12:45.101Z,71.03
2023-04-29T16:15:08.032Z,70.97
2023-04-29T16:17:31.274Z,70.96
2023-04-29T16:19:52.997Z,70.34
2023-04-29T16:22:14.641Z,69.96
2023-04-29T16:24:36.121Z,69.84
2023-04-29T16:26:58.945Z,71.25
2023-04-29T16:29:20.529Z,70.82
2023-04-29T16:31:42.022Z,70.17
2023-04-29T16:34:03.524Z,70.19
2023-04-29T16:36:25.468Z,69.51
2023-04-29T16:38:46.963Z,69.70
2023-04-29T16:41:08.418Z,68.64
2023-04-29T16:43:29.923Z,69.19
2023-04-29T16:45:52.096Z,68.65
2023-04-29T16:48:13.729Z,69.37
2023-04-29T16:50:38.668Z,69.60
2023-04-29T16:53:00.095Z,69.28
2023-04-29T16:55:21.537Z,71.29
2023-04-29T16:57:42.997Z,70.72
2023-04-29T17:00:05.390Z,70.94
2023-04-29T17:02:27.947Z,71.47
2023-04-29T17:04:49.628Z,71.78
2023-04-29T17:07:11.094Z,71.28
2023-04-29T17:09:32.631Z,72.13
2023-04-29T17:11:54.172Z,72.17
2023-04-29T17:14:15.658Z,72.28
2023-04-29T17:16:37.394Z,73.32
2023-04-29T17:18:59.388Z,73.28
2023-04-29T17:21:24.690Z,73.34
2023-04-29T17:23:46.325Z,71.14
2023-04-29T17:26:07.817Z,70.60
2023-04-29T17:28:29.428Z,71.85
2023-04-29T17:30:51.843Z,71.52
2023-04-29T17:33:14.144Z,71.53
2023-04-29T17:35:35.716Z,71.81
2023-04-29T17:37:57.289Z,71.68
2023-04-29T17:40:18.861Z,71.50
2023-04-29T17:42:40.609Z,71.15
2023-04-29T17:45:02.166Z,71.56
2023-04-29T17:47:23.685Z,70.64
2023-04-29T17:49:45.306Z,70.10
2023-04-29T17:52:06.802Z,69.79
2023-04-29T17:54:29.228Z,70.39
2023-04-29T17:56:50.794Z,70.16
2023-04-29T17:59:12.429Z,70.37
2023-04-29T18:01:34.911Z,70.39
2023-04-29T18:03:56.456Z,69.75
2023-04-29T18:06:18.381Z,69.79
2023-04-29T18:08:39.922Z,69.90
2023-04-29T18:11:01.371Z,69.82
2023-04-29T18:13:25.173Z,69.59
2023-04-29T18:15:48.762Z,69.71
2023-04-29T18:18:10.283Z,69.74
2023-04-29T18:20:31.896Z,69.98
2023-04-29T18:22:53.346Z,70.11
2023-04-29T18:25:14.964Z,70.16
2023-04-29T18:27:36.633Z,70.17
2023-04-29T18:29:58.116Z,70.31
2023-04-29T18:32:19.591Z,70.65
2023-04-29T18:34:41.047Z,70.61
2023-04-29T18:37:02.495Z,70.42
2023-04-29T18:39:23.946Z,70.65
2023-04-29T18:41:45.537Z,70.55
2023-04-29T18:44:06.942Z,70.63
2023-04-29T18:46:30.515Z,70.64
2023-04-29T18:48:52.087Z,70.88
2023-04-29T18:51:13.611Z,71.11
2023-04-29T18:53:35.214Z,71.41
2023-04-29T18:55:56.830Z,71.52
2023-04-29T18:58:18.289Z,72.00
2023-04-29T19:00:40.514Z,71.94
2023-04-29T19:03:02.065Z,72.57
2023-04-29T19:05:23.827Z,72.80
2023-04-29T19:07:45.424Z,72.79
2023-04-29T19:10:07.772Z,72.99
2023-04-29T19:12:29.207Z,73.03
2023-04-29T19:14:50.689Z,73.12
2023-04-29T19:17:12.134Z,73.42
2023-04-29T19:19:33.860Z,74.76
2023-04-29T19:21:56.381Z,74.64
2023-04-29T19:24:17.915Z,74.31
2023-04-29T19:26:40.337Z,74.36
2023-04-29T19:29:02.053Z,74.41
2023-04-29T19:31:23.552Z,74.56
2023-04-29T19:33:45.169Z,75.86
2023-04-29T19:36:07.412Z,75.15
2023-04-29T19:38:28.859Z,76.42
2023-04-29T19:40:50.399Z,77.37
2023-04-29T19:43:13.309Z,76.86
2023-04-29T19:45:36.147Z,76.57
2023-04-29T19:48:01.891Z,78.06
2023-04-29T19:50:23.569Z,78.34
2023-04-29T19:52:45.092Z,78.77
2023-04-29T19:55:09.017Z,78.34
2023-04-29T19:57:30.586Z,79.29
2023-04-29T19:59:52.387Z,78.25
2023-04-29T20:02:14.165Z,79.48
2023-04-29T20:04:35.768Z,79.67
2023-04-29T20:06:57.206Z,79.49
2023-04-29T20:09:18.683Z,80.14
2023-04-29T20:11:40.134Z,79.65
2023-04-29T20:14:01.577Z,81.06
2023-04-29T20:16:23.643Z,80.19
2023-04-29T20:18:45.644Z,80.33
2023-04-29T20:21:07.092Z,81.39
2023-04-29T20:23:28.663Z,80.66
2023-04-29T20:25:50.781Z,80.71
2023-04-29T20:28:12.339Z,80.53
2023-04-29T20:30:33.793Z,80.68
2023-04-29T20:32:55.303Z,80.43
2023-04-29T20:35:17.696Z,80.45
2023-04-29T20:37:39.183Z,82.18
2023-04-29T20:40:00.675Z,81.34
2023-04-29T20:42:22.262Z,82.17
2023-04-29T20:44:44.057Z,82.11
2023-04-29T20:47:06.007Z,81.49
2023-04-29T20:49:27.498Z,81.29
2023-04-29T20:51:49.382Z,81.18
2023-04-29T20:54:11.140Z,81.09
2023-04-29T20:56:32.596Z,80.92
2023-04-29T20:58:54.109Z,81.00
2023-04-29T21:01:15.652Z,81.00
2023-04-29T21:03:37.150Z,81.71
2023-04-29T21:05:58.681Z,80.99
2023-04-29T21:08:20.196Z,80.87
2023-04-29T21:10:41.611Z,80.99
2023-04-29T21:13:03.636Z,81.77
2023-04-29T21:15:26.796Z,81.42
2023-04-29T21:17:48.448Z,81.46
2023-04-29T21:20:10.265Z,82.08
2023-04-29T21:22:31.699Z,81.66
2023-04-29T21:24:53.163Z,82.65
2023-04-29T21:27:14.667Z,82.63
2023-04-29T21:29:40.744Z,82.10
2023-04-29T21:32:02.426Z,82.15
2023-04-29T21:34:23.949Z,82.83
2023-04-29T21:36:45.386Z,82.53
2023-04-29T21:39:06.910Z,82.79
2023-04-29T21:41:30.894Z,82.55
2023-04-29T21:43:53.229Z,82.80
2023-04-29T21:46:15.772Z,82.98
2023-04-29T21:48:37.335Z,84.08
2023-04-29T21:50:59.945Z,84.14
2023-04-29T21:53:21.385Z,83.44
2023-04-29T21:55:42.867Z,82.73
2023-04-29T21:58:04.707Z,82.46
2023-04-29T22:00:36.640Z,81.83
2023-04-29T22:02:59.269Z,81.19
2023-04-29T22:05:20.766Z,81.07
2023-04-29T22:07:42.816Z,80.82
2023-04-29T22:10:04.586Z,80.64
2023-04-29T22:12:26.471Z,80.31
2023-04-29T22:14:47.971Z,79.98
2023-04-29T22:17:09.436Z,79.87
2023-04-29T22:19:30.894Z,79.57
2023-04-29T22:21:52.315Z,79.49
2023-04-29T22:24:13.794Z,79.59
2023-04-29T22:26:35.585Z,78.75
2023-04-29T22:28:57.367Z,78.83
2023-04-29T22:31:18.914Z,78.62
2023-04-29T22:33:40.482Z,78.33
2023-04-29T22:36:02.347Z,78.23
2023-04-29T22:38:23.906Z,78.29
2023-04-29T22:40:52.062Z,78.67
2023-04-29T22:43:13.633Z,78.66
2023-04-29T22:45:35.132Z,78.37
2023-04-29T22:47:56.613Z,77.85
2023-04-29T22:50:18.272Z,77.49
2023-04-29T22:52:40.065Z,76.94
2023-04-29T22:55:01.998Z,77.33
2023-04-29T22:57:23.517Z,77.14
2023-04-29T22:59:45.114Z,77.12
2023-04-29T23:02:06.583Z,77.23
2023-04-29T23:04:28.108Z,77.38
2023-04-29T23:06:49.665Z,77.23
2023-04-29T23:09:11.729Z,77.30
2023-04-29T23:11:33.211Z,76.68
2023-04-29T23:13:54.818Z,76.45
2023-04-29T23:16:16.493Z,76.73
2023-04-29T23:18:38.041Z,76.21
2023-04-29T23:20:59.463Z,76.25
2023-04-29T23:23:20.943Z,76.34
2023-04-29T23:25:42.818Z,76.31
2023-04-29T23:28:04.355Z,76.40
2023-04-29T23:30:26.207Z,75.54
2023-04-29T23:32:47.724Z,75.44
2023-04-29T23:35:11.462Z,75.31
2023-04-29T23:37:33.027Z,75.43
2023-04-29T23:39:55.684Z,75.56
2023-04-29T23:42:18.420Z,75.18
2023-04-29T23:44:39.938Z,75.26
2023-04-29T23:47:01.371Z,75.13
2023-04-29T23:49:22.829Z,75.25
2023-04-29T23:51:44.324Z,75.49
2023-04-29T23:54:06.026Z,75.85
2023-04-29T23:56:29.301Z,76.37
2023-04-29T23:58:50.802Z,75.99
